createdAt,value
2018-02-27T00:00:43.249Z,1013.68
2018-02-27T00:01:43.876Z,1013.63
2018-02-27T00:02:44.432Z,1013.62
2018-02-27T00:03:45.019Z,1013.61
2018-02-27T00:04:45.625Z,1013.65
2018-02-27T00:05:46.450Z,1013.64
2018-02-27T00:06:47.090Z,1013.61
2018-02-27T00:07:47.680Z,1013.63
2018-02-27T00:08:48.280Z,1013.59
2018-02-27T00:09:48.864Z,1013.57
2018-02-27T00:10:49.466Z,1013.59
2018-02-27T00:11:50.049Z,1013.54
2018-02-27T00:12:50.634Z,1013.54
2018-02-27T00:13:51.219Z,1013.52
2018-02-27T00:14:51.802Z,1013.55
2018-02-27T00:15:52.440Z,1013.49
2018-02-27T00:16:53.037Z,1013.52
2018-02-27T00:17:53.624Z,1013.48
2018-02-27T00:18:54.216Z,1013.45
2018-02-27T00:19:54.819Z,1013.52
2018-02-27T00:20:55.417Z,1013.46
2018-02-27T00:21:56.002Z,1013.45
2018-02-27T00:22:56.594Z,1013.44
2018-02-27T00:23:57.195Z,1013.48
2018-02-27T00:24:57.788Z,1013.45
2018-02-27T00:25:58.371Z,1013.47
2018-02-27T00:26:58.970Z,1013.47
2018-02-27T00:27:59.576Z,1013.44
2018-02-27T00:29:00.167Z,1013.44
2018-02-27T00:30:00.766Z,1013.44
2018-02-27T00:31:01.350Z,1013.40
2018-02-27T00:32:01.936Z,1013.43
2018-02-27T00:33:02.532Z,1013.48
2018-02-27T00:34:03.123Z,1013.46
2018-02-27T00:35:03.705Z,1013.47
2018-02-27T00:36:04.303Z,1013.48
2018-02-27T00:37:04.901Z,1013.50
2018-02-27T00:38:05.493Z,1013.46
2018-02-27T00:39:06.087Z,1013.46
2018-02-27T00:40:06.675Z,1013.48
2018-02-27T00:41:07.255Z,1013.48
2018-02-27T00:42:07.838Z,1013.47
2018-02-27T00:43:08.449Z,1013.47
2018-02-27T00:44:09.014Z,1013.49
2018-02-27T00:45:09.609Z,1013.53
2018-02-27T00:46:10.190Z,1013.48
2018-02-27T00:47:10.774Z,1013.53
2018-02-27T00:48:11.358Z,1013.49
2018-02-27T00:49:11.951Z,1013.46
2018-02-27T00:50:12.608Z,1013.43
2018-02-27T00:51:13.137Z,1013.49
2018-02-27T00:52:13.730Z,1013.48
2018-02-27T00:53:14.323Z,1013.46
2018-02-27T00:54:14.924Z,1013.49
2018-02-27T00:55:15.512Z,1013.48
2018-02-27T00:56:16.105Z,1013.46
2018-02-27T00:57:16.689Z,1013.45
2018-02-27T00:58:17.281Z,1013.52
2018-02-27T00:59:18.101Z,1013.48
2018-02-27T01:01:02.901Z,1013.51
2018-02-27T01:02:03.519Z,1013.45
2018-02-27T01:03:04.140Z,1013.49
2018-02-27T01:04:04.725Z,1013.52
2018-02-27T01:05:05.321Z,1013.50
2018-02-27T01:06:05.929Z,1013.50
2018-02-27T01:07:06.526Z,1013.52
2018-02-27T01:08:07.122Z,1013.43
2018-02-27T01:09:07.709Z,1013.51
2018-02-27T01:10:08.302Z,1013.42
2018-02-27T01:11:08.893Z,1013.47
2018-02-27T01:12:09.488Z,1013.44
2018-02-27T01:13:10.084Z,1013.42
2018-02-27T01:14:10.689Z,1013.42
2018-02-27T01:15:11.284Z,1013.38
2018-02-27T01:16:11.875Z,1013.44
2018-02-27T01:17:12.471Z,1013.39
2018-02-27T01:18:13.061Z,1013.38
2018-02-27T01:19:13.664Z,1013.38
2018-02-27T01:20:14.259Z,1013.35
2018-02-27T01:21:14.845Z,1013.33
2018-02-27T01:22:15.436Z,1013.33
2018-02-27T01:23:16.035Z,1013.35
2018-02-27T01:24:16.632Z,1013.33
2018-02-27T01:25:17.215Z,1013.27
2018-02-27T01:26:17.816Z,1013.35
2018-02-27T01:27:18.397Z,1013.31
2018-02-27T01:28:18.983Z,1013.32
2018-02-27T01:29:19.573Z,1013.32
2018-02-27T01:30:20.163Z,1013.32
2018-02-27T01:31:20.747Z,1013.28
2018-02-27T01:32:21.338Z,1013.32
2018-02-27T01:33:21.945Z,1013.31
2018-02-27T01:34:22.549Z,1013.31
2018-02-27T01:35:23.150Z,1013.32
2018-02-27T01:36:23.751Z,1013.36
2018-02-27T01:37:24.351Z,1013.34
2018-02-27T01:38:24.935Z,1013.29
2018-02-27T01:39:25.564Z,1013.32
2018-02-27T01:40:26.120Z,1013.23
2018-02-27T01:41:26.718Z,1013.33
2018-02-27T01:42:27.311Z,1013.32
2018-02-27T01:43:27.895Z,1013.31
2018-02-27T01:44:28.479Z,1013.32
2018-02-27T01:45:29.071Z,1013.33
2018-02-27T01:46:29.671Z,1013.32
2018-02-27T01:47:30.270Z,1013.32
2018-02-27T01:48:30.863Z,1013.32
2018-02-27T01:49:31.461Z,1013.26
2018-02-27T01:50:32.051Z,1013.33
2018-02-27T01:51:32.636Z,1013.31
2018-02-27T01:52:33.236Z,1013.32
2018-02-27T01:53:33.843Z,1013.34
2018-02-27T01:54:34.448Z,1013.28
2018-02-27T01:55:35.048Z,1013.30
2018-02-27T01:56:35.631Z,1013.23
2018-02-27T01:57:36.220Z,1013.24
2018-02-27T01:58:36.805Z,1013.35
2018-02-27T01:59:37.394Z,1013.28
2018-02-27T02:00:37.998Z,1013.36
2018-02-27T02:01:38.579Z,1013.30
2018-02-27T02:02:39.170Z,1013.28
2018-02-27T02:03:39.762Z,1013.34
2018-02-27T02:04:40.343Z,1013.27
2018-02-27T02:05:40.928Z,1013.30
2018-02-27T02:06:41.528Z,1013.22
2018-02-27T02:07:42.106Z,1013.23
2018-02-27T02:08:42.687Z,1013.22
2018-02-27T02:09:43.279Z,1013.22
2018-02-27T02:10:43.864Z,1013.22
2018-02-27T02:11:44.457Z,1013.23
2018-02-27T02:12:45.058Z,1013.24
2018-02-27T02:13:45.656Z,1013.22
2018-02-27T02:14:46.251Z,1013.13
2018-02-27T02:15:46.838Z,1013.18
2018-02-27T02:16:47.429Z,1013.18
2018-02-27T02:17:48.012Z,1013.15
2018-02-27T02:18:48.606Z,1013.16
2018-02-27T02:19:49.189Z,1013.09
2018-02-27T02:20:49.781Z,1013.11
2018-02-27T02:21:50.379Z,1013.13
2018-02-27T02:22:50.965Z,1013.12
2018-02-27T02:23:51.554Z,1013.06
2018-02-27T02:24:52.140Z,1013.09
2018-02-27T02:25:52.731Z,1013.10
2018-02-27T02:26:53.326Z,1013.08
2018-02-27T02:27:53.932Z,1013.09
2018-02-27T02:28:54.514Z,1013.09
2018-02-27T02:29:55.099Z,1013.08
2018-02-27T02:30:55.697Z,1013.07
2018-02-27T02:31:56.282Z,1013.06
2018-02-27T02:32:56.875Z,1013.07
2018-02-27T02:33:57.467Z,1013.05
2018-02-27T02:34:58.052Z,1013.02
2018-02-27T02:35:58.645Z,1013.03
2018-02-27T02:36:59.237Z,1013.06
2018-02-27T02:37:59.837Z,1013.01
2018-02-27T02:39:00.422Z,1013.00
2018-02-27T02:40:01.018Z,1012.97
2018-02-27T02:41:01.610Z,1012.98
2018-02-27T02:42:02.214Z,1013.02
2018-02-27T02:43:02.803Z,1013.00
2018-02-27T02:44:03.395Z,1013.05
2018-02-27T02:45:03.994Z,1013.01
2018-02-27T02:46:04.574Z,1012.98
2018-02-27T02:47:05.168Z,1013.00
2018-02-27T02:48:05.759Z,1013.00
2018-02-27T02:49:06.347Z,1012.98
2018-02-27T02:50:06.945Z,1013.01
2018-02-27T02:51:07.537Z,1013.05
2018-02-27T02:52:08.123Z,1013.05
2018-02-27T02:53:08.720Z,1013.05
2018-02-27T02:54:09.305Z,1013.07
2018-02-27T02:55:09.894Z,1012.99
2018-02-27T02:56:10.493Z,1013.10
2018-02-27T02:57:11.084Z,1013.05
2018-02-27T02:58:11.675Z,1013.09
2018-02-27T02:59:12.259Z,1013.05
2018-02-27T03:00:13.840Z,1013.08
2018-02-27T03:01:14.443Z,1013.05
2018-02-27T03:02:15.041Z,1013.06
2018-02-27T03:03:15.641Z,1013.05
2018-02-27T03:04:16.224Z,1013.04
2018-02-27T03:05:16.808Z,1013.03
2018-02-27T03:06:17.402Z,1013.00
2018-02-27T03:07:17.998Z,1013.04
2018-02-27T03:08:18.592Z,1013.01
2018-02-27T03:09:19.172Z,1013.01
2018-02-27T03:10:19.770Z,1013.00
2018-02-27T03:11:20.355Z,1012.98
2018-02-27T03:12:20.945Z,1012.98
2018-02-27T03:13:21.538Z,1013.00
2018-02-27T03:14:22.128Z,1012.97
2018-02-27T03:15:22.717Z,1012.96
2018-02-27T03:16:23.309Z,1012.98
2018-02-27T03:17:23.912Z,1012.93
2018-02-27T03:18:24.502Z,1012.91
2018-02-27T03:19:25.096Z,1012.93
2018-02-27T03:20:25.701Z,1012.88
2018-02-27T03:21:26.284Z,1012.95
2018-02-27T03:22:26.865Z,1012.88
2018-02-27T03:23:27.451Z,1012.89
2018-02-27T03:24:28.042Z,1012.90
2018-02-27T03:25:28.633Z,1012.90
2018-02-27T03:26:29.216Z,1012.90
2018-02-27T03:27:29.807Z,1012.87
2018-02-27T03:28:30.398Z,1012.90
2018-02-27T03:29:30.998Z,1012.82
2018-02-27T03:30:31.583Z,1012.86
2018-02-27T03:31:32.185Z,1012.79
2018-02-27T03:32:32.789Z,1012.90
2018-02-27T03:33:33.378Z,1012.85
2018-02-27T03:34:33.978Z,1012.87
2018-02-27T03:35:34.568Z,1012.81
2018-02-27T03:36:35.175Z,1012.81
2018-02-27T03:37:35.757Z,1012.90
2018-02-27T03:38:36.354Z,1012.90
2018-02-27T03:39:36.948Z,1012.87
2018-02-27T03:40:37.538Z,1012.86
2018-02-27T03:41:38.137Z,1012.87
2018-02-27T03:42:38.723Z,1012.88
2018-02-27T03:43:39.318Z,1012.86
2018-02-27T03:44:39.913Z,1012.82
2018-02-27T03:45:40.496Z,1012.83
2018-02-27T03:46:41.085Z,1012.83
2018-02-27T03:47:41.685Z,1012.84
2018-02-27T03:48:42.275Z,1012.79
2018-02-27T03:49:42.871Z,1012.82
2018-02-27T03:50:43.470Z,1012.82
2018-02-27T03:51:44.056Z,1012.83
2018-02-27T03:52:44.657Z,1012.77
2018-02-27T03:53:45.237Z,1012.80
2018-02-27T03:54:45.820Z,1012.77
2018-02-27T03:55:46.403Z,1012.80
2018-02-27T03:56:46.999Z,1012.80
2018-02-27T03:57:47.598Z,1012.87
2018-02-27T03:58:48.198Z,1012.85
2018-02-27T03:59:48.788Z,1012.87
2018-02-27T04:00:49.390Z,1012.90
2018-02-27T04:01:49.988Z,1012.87
2018-02-27T04:02:50.583Z,1012.90
2018-02-27T04:03:51.183Z,1012.93
2018-02-27T04:04:51.766Z,1012.91
2018-02-27T04:05:52.349Z,1012.87
2018-02-27T04:06:52.938Z,1012.88
2018-02-27T04:07:53.540Z,1012.85
2018-02-27T04:08:54.127Z,1012.89
2018-02-27T04:09:54.725Z,1012.84
2018-02-27T04:10:55.323Z,1012.85
2018-02-27T04:11:55.905Z,1012.84
2018-02-27T04:12:56.497Z,1012.88
2018-02-27T04:13:57.089Z,1012.88
2018-02-27T04:14:57.672Z,1012.90
2018-02-27T04:15:58.261Z,1012.92
2018-02-27T04:16:58.885Z,1012.87
2018-02-27T04:17:59.473Z,1012.91
2018-02-27T04:19:00.072Z,1012.87
2018-02-27T04:20:00.671Z,1012.86
2018-02-27T04:21:01.270Z,1012.85
2018-02-27T04:22:01.860Z,1012.83
2018-02-27T04:23:02.445Z,1012.79
2018-02-27T04:24:03.032Z,1012.83
2018-02-27T04:25:03.622Z,1012.87
2018-02-27T04:26:04.221Z,1012.86
2018-02-27T04:27:04.810Z,1012.85
2018-02-27T04:28:05.395Z,1012.85
2018-02-27T04:29:05.994Z,1012.85
2018-02-27T04:30:06.592Z,1012.85
2018-02-27T04:31:07.175Z,1012.85
2018-02-27T04:32:07.773Z,1012.91
2018-02-27T04:33:08.378Z,1012.83
2018-02-27T04:34:08.968Z,1012.91
2018-02-27T04:35:09.576Z,1012.90
2018-02-27T04:36:10.176Z,1012.90
2018-02-27T04:37:10.767Z,1012.89
2018-02-27T04:38:11.372Z,1012.89
2018-02-27T04:39:12.005Z,1012.90
2018-02-27T04:40:12.561Z,1012.93
2018-02-27T04:41:13.152Z,1012.91
2018-02-27T04:42:13.735Z,1012.98
2018-02-27T04:43:14.325Z,1012.95
2018-02-27T04:44:14.935Z,1012.97
2018-02-27T04:45:15.515Z,1012.96
2018-02-27T04:46:16.108Z,1012.96
2018-02-27T04:47:16.705Z,1012.96
2018-02-27T04:48:17.290Z,1012.96
2018-02-27T04:49:17.883Z,1012.97
2018-02-27T04:50:18.462Z,1012.95
2018-02-27T04:51:19.048Z,1012.95
2018-02-27T04:52:19.647Z,1012.96
2018-02-27T04:53:20.249Z,1012.95
2018-02-27T04:54:20.846Z,1012.92
2018-02-27T04:55:21.448Z,1012.95
2018-02-27T04:56:22.111Z,1012.93
2018-02-27T04:57:22.650Z,1012.93
2018-02-27T04:58:23.246Z,1012.94
2018-02-27T04:59:23.853Z,1012.94
2018-02-27T05:00:24.463Z,1012.92
2018-02-27T05:01:25.077Z,1012.97
2018-02-27T05:02:25.659Z,1012.95
2018-02-27T05:03:26.253Z,1012.98
2018-02-27T05:04:26.839Z,1012.97
2018-02-27T05:05:27.439Z,1013.00
2018-02-27T05:06:28.030Z,1012.97
2018-02-27T05:07:28.611Z,1012.98
2018-02-27T05:08:29.203Z,1012.98
2018-02-27T05:09:29.794Z,1012.97
2018-02-27T05:10:30.385Z,1012.96
2018-02-27T05:11:30.977Z,1012.95
2018-02-27T05:12:31.558Z,1012.94
2018-02-27T05:13:32.156Z,1012.95
2018-02-27T05:14:32.751Z,1012.94
2018-02-27T05:15:33.352Z,1012.97
2018-02-27T05:16:33.993Z,1012.95
2018-02-27T05:17:34.577Z,1012.97
2018-02-27T05:18:35.172Z,1012.93
2018-02-27T05:19:35.773Z,1012.93
2018-02-27T05:20:36.354Z,1012.90
2018-02-27T05:21:36.947Z,1012.91
2018-02-27T05:22:37.539Z,1012.89
2018-02-27T05:23:38.128Z,1012.91
2018-02-27T05:24:38.722Z,1012.90
2018-02-27T05:25:39.304Z,1012.92
2018-02-27T05:26:39.900Z,1012.93
2018-02-27T05:27:40.498Z,1012.94
2018-02-27T05:28:41.095Z,1012.89
2018-02-27T05:29:41.681Z,1012.93
2018-02-27T05:30:42.272Z,1012.87
2018-02-27T05:31:42.861Z,1012.82
2018-02-27T05:32:43.466Z,1012.88
2018-02-27T05:33:44.070Z,1012.82
2018-02-27T05:34:44.653Z,1012.85
2018-02-27T05:35:45.253Z,1012.84
2018-02-27T05:36:45.850Z,1012.81
2018-02-27T05:37:46.444Z,1012.84
2018-02-27T05:38:47.026Z,1012.88
2018-02-27T05:39:47.629Z,1012.87
2018-02-27T05:40:48.225Z,1012.84
2018-02-27T05:41:48.864Z,1012.81
2018-02-27T05:42:49.437Z,1012.86
2018-02-27T05:43:50.035Z,1012.90
2018-02-27T05:44:50.618Z,1012.85
2018-02-27T05:45:51.209Z,1012.85
2018-02-27T05:46:51.800Z,1012.86
2018-02-27T05:47:52.387Z,1012.84
2018-02-27T05:48:52.987Z,1012.89
2018-02-27T05:49:53.590Z,1012.83
2018-02-27T05:50:54.194Z,1012.86
2018-02-27T05:51:54.776Z,1012.84
2018-02-27T05:52:55.367Z,1012.83
2018-02-27T05:53:55.969Z,1012.78
2018-02-27T05:54:56.566Z,1012.85
2018-02-27T05:55:57.168Z,1012.83
2018-02-27T05:56:57.768Z,1012.86
2018-02-27T05:57:58.352Z,1012.84
2018-02-27T05:58:58.937Z,1012.85
2018-02-27T05:59:59.528Z,1012.90
2018-02-27T06:01:00.128Z,1012.95
2018-02-27T06:02:00.734Z,1012.91
2018-02-27T06:03:01.342Z,1012.96
2018-02-27T06:04:01.926Z,1012.93
2018-02-27T06:05:02.518Z,1012.95
2018-02-27T06:06:03.100Z,1012.97
2018-02-27T06:07:03.685Z,1012.99
2018-02-27T06:08:04.278Z,1013.01
2018-02-27T06:09:04.883Z,1012.95
2018-02-27T06:10:05.485Z,1013.01
2018-02-27T06:11:06.072Z,1012.98
2018-02-27T06:12:06.661Z,1012.98
2018-02-27T06:13:07.285Z,1012.95
2018-02-27T06:14:07.852Z,1012.98
2018-02-27T06:15:08.454Z,1012.96
2018-02-27T06:16:09.052Z,1012.95
2018-02-27T06:17:09.638Z,1012.96
2018-02-27T06:18:10.228Z,1012.98
2018-02-27T06:19:10.827Z,1013.00
2018-02-27T06:20:11.412Z,1013.03
2018-02-27T06:21:12.027Z,1012.98
2018-02-27T06:22:12.624Z,1013.00
2018-02-27T06:23:13.216Z,1012.99
2018-02-27T06:24:13.803Z,1013.02
2018-02-27T06:25:14.403Z,1012.99
2018-02-27T06:26:15.015Z,1012.99
2018-02-27T06:27:15.615Z,1013.02
2018-02-27T06:28:16.214Z,1013.02
2018-02-27T06:29:16.800Z,1013.03
2018-02-27T06:30:17.403Z,1013.04
2018-02-27T06:31:17.991Z,1013.02
2018-02-27T06:32:18.584Z,1013.03
2018-02-27T06:33:19.166Z,1013.07
2018-02-27T06:34:19.759Z,1013.06
2018-02-27T06:35:20.352Z,1013.05
2018-02-27T06:36:20.939Z,1013.03
2018-02-27T06:37:21.581Z,1013.04
2018-02-27T06:38:22.120Z,1012.99
2018-02-27T06:39:22.719Z,1013.01
2018-02-27T06:40:23.315Z,1013.00
2018-02-27T06:41:23.912Z,1012.98
2018-02-27T06:42:24.509Z,1012.95
2018-02-27T06:43:25.108Z,1012.99
2018-02-27T06:44:25.710Z,1012.96
2018-02-27T06:45:26.309Z,1013.01
2018-02-27T06:46:26.912Z,1012.98
2018-02-27T06:47:27.502Z,1013.02
2018-02-27T06:48:28.099Z,1013.04
2018-02-27T06:49:28.699Z,1013.00
2018-02-27T06:50:29.295Z,1012.99
2018-02-27T06:51:29.884Z,1012.99
2018-02-27T06:52:30.476Z,1012.99
2018-02-27T06:53:31.076Z,1013.00
2018-02-27T06:54:31.677Z,1012.95
2018-02-27T06:55:32.271Z,1012.92
2018-02-27T06:56:32.860Z,1012.92
2018-02-27T06:57:33.466Z,1012.96
2018-02-27T06:58:34.052Z,1012.91
2018-02-27T06:59:34.656Z,1012.91
2018-02-27T07:00:35.244Z,1012.92
2018-02-27T07:01:35.840Z,1012.89
2018-02-27T07:02:36.429Z,1012.89
2018-02-27T07:03:37.024Z,1012.94
2018-02-27T07:04:37.681Z,1012.93
2018-02-27T07:05:38.278Z,1012.87
2018-02-27T07:06:38.884Z,1012.88
2018-02-27T07:07:39.474Z,1012.88
2018-02-27T07:08:40.068Z,1012.87
2018-02-27T07:09:40.662Z,1012.88
2018-02-27T07:10:41.257Z,1012.87
2018-02-27T07:11:41.845Z,1012.85
2018-02-27T07:12:42.440Z,1012.86
2018-02-27T07:13:43.035Z,1012.86
2018-02-27T07:14:43.652Z,1012.88
2018-02-27T07:15:44.253Z,1012.85
2018-02-27T07:16:44.859Z,1012.85
2018-02-27T07:17:45.446Z,1012.80
2018-02-27T07:18:46.102Z,1012.86
2018-02-27T07:19:46.652Z,1012.84
2018-02-27T07:20:47.257Z,1012.84
2018-02-27T07:21:47.850Z,1012.78
2018-02-27T07:22:48.460Z,1012.79
2018-02-27T07:23:49.065Z,1012.75
2018-02-27T07:24:49.666Z,1012.80
2018-02-27T07:25:50.273Z,1012.78
2018-02-27T07:26:50.871Z,1012.78
2018-02-27T07:27:51.465Z,1012.81
2018-02-27T07:28:52.068Z,1012.80
2018-02-27T07:29:52.677Z,1012.80
2018-02-27T07:30:53.291Z,1012.82
2018-02-27T07:31:53.903Z,1012.86
2018-02-27T07:32:54.521Z,1012.81
2018-02-27T07:33:55.114Z,1012.78
2018-02-27T07:34:55.710Z,1012.84
2018-02-27T07:35:56.310Z,1012.80
2018-02-27T07:36:56.903Z,1012.78
2018-02-27T07:37:57.510Z,1012.73
2018-02-27T07:38:58.107Z,1012.80
2018-02-27T07:39:58.711Z,1012.75
2018-02-27T07:40:59.324Z,1012.78
2018-02-27T07:41:59.930Z,1012.76
2018-02-27T07:43:00.534Z,1012.76
2018-02-27T07:44:01.137Z,1012.74
2018-02-27T07:45:01.750Z,1012.75
2018-02-27T07:46:02.354Z,1012.71
2018-02-27T07:47:02.958Z,1012.72
2018-02-27T07:48:03.573Z,1012.74
2018-02-27T07:49:04.184Z,1012.73
2018-02-27T07:50:04.783Z,1012.70
2018-02-27T07:51:05.384Z,1012.69
2018-02-27T07:52:06.002Z,1012.67
2018-02-27T07:53:06.610Z,1012.67
2018-02-27T07:54:07.215Z,1012.70
2018-02-27T07:55:07.835Z,1012.73
2018-02-27T07:56:08.455Z,1012.69
2018-02-27T07:57:09.063Z,1012.73
2018-02-27T07:58:09.663Z,1012.81
2018-02-27T07:59:10.268Z,1012.73
2018-02-27T08:00:10.869Z,1012.78
2018-02-27T08:01:11.484Z,1012.78
2018-02-27T08:02:12.101Z,1012.80
2018-02-27T08:03:12.710Z,1012.78
2018-02-27T08:04:13.410Z,1012.70
2018-02-27T08:05:13.918Z,1012.68
2018-02-27T08:06:14.517Z,1012.74
2018-02-27T08:07:15.116Z,1012.71
2018-02-27T08:08:15.724Z,1012.75
2018-02-27T08:09:16.339Z,1012.75
2018-02-27T08:10:16.955Z,1012.77
2018-02-27T08:11:17.570Z,1012.73
2018-02-27T08:12:18.196Z,1012.74
2018-02-27T08:13:18.801Z,1012.81
2018-02-27T08:14:19.967Z,1012.80
2018-02-27T08:15:20.580Z,1012.75
2018-02-27T08:16:21.200Z,1012.71
2018-02-27T08:17:21.821Z,1012.72
2018-02-27T08:18:22.446Z,1012.79
2018-02-27T08:19:23.064Z,1012.80
2018-02-27T08:20:23.685Z,1012.76
2018-02-27T08:21:24.298Z,1012.72
2018-02-27T08:22:24.912Z,1012.72
2018-02-27T08:23:25.524Z,1012.71
2018-02-27T08:24:26.131Z,1012.71
2018-02-27T08:25:26.744Z,1012.73
2018-02-27T08:26:27.346Z,1012.67
2018-02-27T08:27:27.954Z,1012.68
2018-02-27T08:28:28.565Z,1012.66
2018-02-27T08:29:29.174Z,1012.70
2018-02-27T08:30:29.786Z,1012.62
2018-02-27T08:31:30.409Z,1012.66
2018-02-27T08:32:31.032Z,1012.68
2018-02-27T08:33:31.646Z,1012.60
2018-02-27T08:34:32.260Z,1012.60
2018-02-27T08:35:32.865Z,1012.64
2018-02-27T08:36:33.464Z,1012.61
2018-02-27T08:37:34.060Z,1012.58
2018-02-27T08:38:34.657Z,1012.62
2018-02-27T08:39:35.270Z,1012.57
2018-02-27T08:40:35.874Z,1012.65
2018-02-27T08:41:36.471Z,1012.66
2018-02-27T08:42:37.088Z,1012.55
2018-02-27T08:43:37.696Z,1012.59
2018-02-27T08:44:38.302Z,1012.60
2018-02-27T08:45:38.907Z,1012.62
2018-02-27T08:46:39.523Z,1012.67
2018-02-27T08:47:40.116Z,1012.57
2018-02-27T08:48:40.712Z,1012.57
2018-02-27T08:49:41.325Z,1012.62
2018-02-27T08:50:41.926Z,1012.61
2018-02-27T08:51:42.536Z,1012.62
2018-02-27T08:52:43.140Z,1012.47
2018-02-27T08:53:43.749Z,1012.60
2018-02-27T08:54:44.363Z,1012.67
2018-02-27T08:55:44.976Z,1012.59
2018-02-27T08:56:45.573Z,1012.56
2018-02-27T08:57:46.176Z,1012.55
2018-02-27T08:58:46.778Z,1012.60
2018-02-27T08:59:47.380Z,1012.55
2018-02-27T09:00:47.989Z,1012.48
2018-02-27T09:01:48.622Z,1012.56
2018-02-27T09:02:49.186Z,1012.49
2018-02-27T09:03:49.795Z,1012.51
2018-02-27T09:04:50.389Z,1012.51
2018-02-27T09:05:51.005Z,1012.54
2018-02-27T09:06:51.611Z,1012.55
2018-02-27T09:07:52.233Z,1012.52
2018-02-27T09:08:52.815Z,1012.57
2018-02-27T09:09:53.420Z,1012.62
2018-02-27T09:10:54.030Z,1012.09
2018-02-27T09:11:54.696Z,1012.52
2018-02-27T09:12:55.308Z,1012.56
2018-02-27T09:13:55.918Z,1012.41
2018-02-27T09:14:56.514Z,1012.50
2018-02-27T09:15:57.126Z,1012.44
2018-02-27T09:16:57.735Z,1012.40
2018-02-27T09:17:58.346Z,1012.41
2018-02-27T09:18:58.953Z,1012.47
2018-02-27T09:19:59.567Z,1012.35
2018-02-27T09:21:00.177Z,1012.37
2018-02-27T09:22:00.772Z,1012.41
2018-02-27T09:23:01.370Z,1012.37
2018-02-27T09:24:01.969Z,1012.32
2018-02-27T09:25:02.579Z,1012.34
2018-02-27T09:26:03.189Z,1012.33
2018-02-27T09:27:03.804Z,1012.39
2018-02-27T09:28:04.403Z,1012.27
2018-02-27T09:29:05.018Z,1012.35
2018-02-27T09:30:05.625Z,1012.31
2018-02-27T09:31:06.219Z,1012.31
2018-02-27T09:32:06.836Z,1012.29
2018-02-27T09:33:07.435Z,1012.24
2018-02-27T09:34:08.045Z,1012.35
2018-02-27T09:35:08.653Z,1012.37
2018-02-27T09:36:09.273Z,1012.19
2018-02-27T09:37:09.894Z,1012.16
2018-02-27T09:38:10.490Z,1012.19
2018-02-27T09:39:11.104Z,1012.19
2018-02-27T09:40:11.720Z,1012.28
2018-02-27T09:41:12.343Z,1012.36
2018-02-27T09:42:12.957Z,1012.20
2018-02-27T09:43:13.575Z,1012.24
2018-02-27T09:44:14.190Z,1012.24
2018-02-27T09:45:14.795Z,1012.21
2018-02-27T09:46:15.408Z,1012.22
2018-02-27T09:47:16.016Z,1012.25
2018-02-27T09:48:16.635Z,1012.14
2018-02-27T09:49:17.299Z,1012.20
2018-02-27T09:50:17.907Z,1012.18
2018-02-27T09:51:18.517Z,1012.11
2018-02-27T09:52:19.116Z,1012.19
2018-02-27T09:53:19.731Z,1012.20
2018-02-27T09:54:20.355Z,1012.15
2018-02-27T09:55:20.962Z,1012.29
2018-02-27T09:56:21.582Z,1012.23
2018-02-27T09:57:22.186Z,1012.26
2018-02-27T09:58:22.796Z,1012.16
2018-02-27T09:59:23.400Z,1012.11
2018-02-27T10:00:24.014Z,1012.19
2018-02-27T10:01:24.614Z,1012.17
2018-02-27T10:02:25.228Z,1012.11
2018-02-27T10:03:25.857Z,1012.13
2018-02-27T10:04:26.465Z,1012.10
2018-02-27T10:05:27.079Z,1011.97
2018-02-27T10:06:27.691Z,1012.08
2018-02-27T10:07:28.306Z,1012.05
2018-02-27T10:08:28.924Z,1011.97
2018-02-27T10:09:29.539Z,1012.00
2018-02-27T10:10:30.139Z,1012.04
2018-02-27T10:11:30.740Z,1011.99
2018-02-27T10:12:31.353Z,1012.04
2018-02-27T10:13:31.969Z,1011.96
2018-02-27T10:14:32.583Z,1011.93
2018-02-27T10:15:33.186Z,1011.97
2018-02-27T10:16:33.798Z,1011.95
2018-02-27T10:17:34.404Z,1011.92
2018-02-27T10:18:35.010Z,1011.94
2018-02-27T10:19:35.626Z,1011.78
2018-02-27T10:20:36.233Z,1011.91
2018-02-27T10:21:36.834Z,1011.99
2018-02-27T10:22:37.443Z,1011.85
2018-02-27T10:23:38.060Z,1011.97
2018-02-27T10:24:38.675Z,1011.96
2018-02-27T10:25:39.290Z,1011.95
2018-02-27T10:26:39.891Z,1011.92
2018-02-27T10:27:40.492Z,1011.95
2018-02-27T10:28:41.114Z,1011.90
2018-02-27T10:29:41.735Z,1011.87
2018-02-27T10:30:42.421Z,1011.92
2018-02-27T10:31:42.954Z,1011.79
2018-02-27T10:32:43.562Z,1011.84
2018-02-27T10:33:44.165Z,1011.92
2018-02-27T10:34:44.808Z,1011.85
2018-02-27T10:35:45.395Z,1011.84
2018-02-27T10:36:46.004Z,1011.87
2018-02-27T10:37:46.616Z,1011.84
2018-02-27T10:38:47.222Z,1011.82
2018-02-27T10:39:47.822Z,1011.81
2018-02-27T10:40:48.430Z,1011.80
2018-02-27T10:41:49.038Z,1011.76
2018-02-27T10:42:49.652Z,1011.78
2018-02-27T10:43:50.260Z,1011.84
2018-02-27T10:44:50.874Z,1011.74
2018-02-27T10:45:51.492Z,1011.78
2018-02-27T10:46:52.102Z,1011.71
2018-02-27T10:47:52.706Z,1011.86
2018-02-27T10:48:53.306Z,1011.75
2018-02-27T10:49:53.933Z,1011.78
2018-02-27T10:50:54.523Z,1011.70
2018-02-27T10:51:55.126Z,1011.70
2018-02-27T10:52:55.750Z,1011.64
2018-02-27T10:53:56.363Z,1011.72
2018-02-27T10:54:57.027Z,1011.75
2018-02-27T10:55:57.582Z,1011.71
2018-02-27T10:56:58.188Z,1011.67
2018-02-27T10:57:58.801Z,1011.71
2018-02-27T10:58:59.411Z,1011.64
2018-02-27T11:00:01.974Z,1011.65
2018-02-27T11:01:02.579Z,1011.76
2018-02-27T11:02:03.206Z,1011.69
2018-02-27T11:03:03.798Z,1011.60
2018-02-27T11:04:04.397Z,1011.59
2018-02-27T11:06:25.508Z,1011.62
2018-02-27T11:07:26.126Z,1011.53
2018-02-27T11:09:44.972Z,1011.58
2018-02-27T11:10:45.584Z,1011.51
2018-02-27T11:11:46.186Z,1011.51
2018-02-27T11:12:46.793Z,1011.50
2018-02-27T11:13:47.416Z,1011.48
2018-02-27T11:14:48.078Z,1011.50
2018-02-27T11:15:48.685Z,1011.42
2018-02-27T11:16:49.302Z,1011.45
2018-02-27T11:17:49.921Z,1011.45
2018-02-27T11:18:50.523Z,1011.44
2018-02-27T11:19:51.170Z,1011.42
2018-02-27T11:20:51.742Z,1011.42
2018-02-27T11:21:52.348Z,1011.39
2018-02-27T11:22:52.942Z,1011.40
2018-02-27T11:23:53.548Z,1011.40
2018-02-27T11:24:54.162Z,1011.42
2018-02-27T11:25:54.769Z,1011.33
2018-02-27T11:26:55.373Z,1011.39
2018-02-27T11:27:55.980Z,1011.40
2018-02-27T11:28:56.594Z,1011.33
2018-02-27T11:29:57.256Z,1011.33
2018-02-27T11:30:57.872Z,1011.35
2018-02-27T11:31:58.481Z,1011.27
2018-02-27T11:32:59.095Z,1011.28
2018-02-27T11:33:59.704Z,1011.25
2018-02-27T11:35:00.374Z,1011.20
2018-02-27T11:36:00.993Z,1011.27
2018-02-27T11:37:01.605Z,1011.28
2018-02-27T11:38:02.227Z,1011.22
2018-02-27T11:39:02.840Z,1011.27
2018-02-27T11:40:03.450Z,1011.28
2018-02-27T11:41:04.060Z,1011.21
2018-02-27T11:42:04.657Z,1011.24
2018-02-27T11:43:05.260Z,1011.26
2018-02-27T11:44:05.878Z,1011.23
2018-02-27T11:45:06.486Z,1011.24
2018-02-27T11:46:07.311Z,1011.27
2018-02-27T11:47:07.922Z,1011.17
2018-02-27T11:48:08.521Z,1011.17
2018-02-27T11:49:09.127Z,1011.03
2018-02-27T11:50:09.730Z,1011.13
2018-02-27T11:51:10.350Z,1011.17
2018-02-27T11:52:10.945Z,1011.08
2018-02-27T11:53:11.559Z,1011.09
2018-02-27T11:54:12.179Z,1011.12
2018-02-27T11:55:12.799Z,1011.06
2018-02-27T11:56:13.412Z,1011.06
2018-02-27T11:57:14.019Z,1011.03
2018-02-27T11:58:14.627Z,1011.02
2018-02-27T11:59:15.230Z,1011.07
2018-02-27T12:00:15.851Z,1011.09
2018-02-27T12:01:16.465Z,1011.02
2018-02-27T12:02:17.123Z,1011.01
2018-02-27T12:03:17.687Z,1010.96
2018-02-27T12:04:18.284Z,1010.98
2018-02-27T12:05:18.882Z,1010.95
2018-02-27T12:06:19.495Z,1010.92
2018-02-27T12:07:20.107Z,1010.89
2018-02-27T12:08:20.725Z,1011.04
2018-02-27T12:09:21.333Z,1010.89
2018-02-27T12:10:21.936Z,1010.87
2018-02-27T12:11:22.538Z,1010.94
2018-02-27T12:12:23.130Z,1010.96
2018-02-27T12:13:23.738Z,1010.91
2018-02-27T12:14:24.344Z,1010.89
2018-02-27T12:15:24.944Z,1010.89
2018-02-27T12:16:25.551Z,1010.77